Latest Coastal Weather Observations for Maningrida Airport

IDD60701

Issued at 9:21 pm CST Monday 26 February 2024 (issued every 10 minutes, with the page automatically refreshed every 10 minutes)

About coastal observations | Map of coastal stations | Coastal observations for NT | Marine services | Other Formats
Station Details ID: 014405 Name: MANINGRIDA AIRPORT Lat: -12.06 Lon: 134.23 Height: 28.1 m
Data from the previous 72 hours. | See also: Recent months at Maningrida Airport
Date/Time
CST
Wind Sea
Height
m
Swell Vis
km
Cloud Weather Temp
°C
Press
MSL
hPa
Rain since
9am
mm
Dir  Spd
kts
Gust
kts
Height
m
Period
s
Dir
26/09:00pm NW 6 9 - - - - 10 Mostly clear - 28.7 1006.5 0.2
26/08:30pm NNW 7 10 - - - - 10 - - 28.7 1006.1 0.2
26/08:00pm NW 6 9 - - - - 10 Partly cloudy - 28.6 1005.9 0.2
26/07:30pm NNW 9 13 - - - - 10 Partly cloudy - 28.8 1005.8 0.2
26/07:00pm NNW 9 12 - - - - 10 Partly cloudy - 28.9 1005.5 0.2
26/06:30pm NNW 8 13 - - - - 10 Partly cloudy - 29.1 1005.2 0.2
26/06:00pm NNW 11 14 - - - - 10 Partly cloudy - 29.2 1005.0 0.2
26/05:30pm N 10 13 - - - - 10 Partly cloudy - 29.5 1005.0 0.2
26/05:00pm NNW 9 11 - - - - 10 Partly cloudy - 30.0 1004.7 0.2
26/04:30pm NNW 7 10 - - - - 10 - - 29.7 1004.5 0.2
26/04:00pm N 7 9 - - - - 10 - - 29.2 1004.5 0.2
26/03:30pm N 7 9 - - - - 10 - - 29.3 1004.7 0.2
26/03:00pm N 1 5 - - - - 10 Mostly cloudy - 29.8 1004.8 0.2
26/02:30pm NW 4 6 - - - - 10 Partly cloudy - 29.1 1005.3 0.2
26/02:00pm N 11 17 - - - - 10 Partly cloudy - 28.7 1005.9 0.2
26/01:30pm NNE 10 13 - - - - 10 Partly cloudy - 29.8 1005.9 0.2
26/01:00pm N 9 11 - - - - 10 Partly cloudy - 29.5 1006.2 0.2
26/12:30pm NNE 6 9 - - - - 10 Cloudy - 29.8 1006.6 0.2
26/12:00pm N 5 8 - - - - 10 Partly cloudy Recent precip. 30.3 1006.9 0.2
26/11:30am NNW 3 5 - - - - 10 Partly cloudy - 29.4 1007.2 0.2
26/11:17am N 4 6 - - - - 10 Partly cloudy - 29.2 1007.5 0.0
26/11:00am NW 4 6 - - - - 10 Partly cloudy - 28.9 1007.7 0.0
26/10:47am ENE 1 5 - - - - 10 Partly cloudy - 29.1 1007.8 0.0
26/10:30am SE 2 4 - - - - 10 Partly cloudy - 28.4 1007.8 0.0
26/10:00am SSE 3 5 - - - - 10 Partly cloudy - 27.4 1007.9 0.0
26/09:39am S 3 5 - - - - 10 Partly cloudy - 26.9 1008.0 0.0
26/09:30am SSW 4 5 - - - - 10 Partly cloudy - 26.7 1007.9 0.0
26/09:00am SSW 2 4 - - - - 10 Cloudy Rain 26.1 1007.2 27.8
26/08:53am SSW 1 4 - - - - 10 Partly cloudy - 26.1 1007.0 27.8
26/08:30am CALM 0 0 - - - - 10 Partly cloudy - 26.0 1006.7 27.8
26/08:00am CALM 0 0 - - - - 10 Partly cloudy - 25.8 1006.8 27.6
26/07:48am CALM 0 0 - - - - 10 Partly cloudy - 25.7 1006.7 27.4
26/07:30am CALM 0 0 - - - - 9 Partly cloudy - 25.7 1006.5 26.8
26/07:16am CALM 0 0 - - - - 6 Partly cloudy - 25.7 1006.2 26.4
26/07:00am SE 3 4 - - - - 10 - - 25.7 1005.9 26.0
26/06:30am CALM 0 0 - - - - 8 - - 25.7 1005.6 25.2
26/06:00am NE 3 4 - - - - 10 Mostly cloudy Rain 25.8 1005.9 24.2
26/05:57am ENE 3 4 - - - - 10 Partly cloudy - 25.8 1005.8 24.2
26/05:30am SE 4 5 - - - - 10 Partly cloudy - 25.8 1005.6 23.8
26/05:00am S 3 5 - - - - 10 Partly cloudy - 25.7 1005.4 23.8
26/04:56am S 3 5 - - - - 10 Partly cloudy - 25.6 1005.4 23.8
26/04:30am SW 2 4 - - - - 10 Partly cloudy - 25.6 1005.6 23.8
26/04:00am CALM 0 0 - - - - 10 Partly cloudy - 25.6 1005.5 23.8
26/03:30am S 3 5 - - - - 10 Partly cloudy - 25.6 1005.5 23.8
26/03:00am SSW 1 5 - - - - 10 Cloudy Drizzle 25.6 1005.3 23.8
26/02:30am CALM 0 0 - - - - 10 Partly cloudy - 25.7 1005.4 23.8
26/02:00am CALM 0 0 - - - - 10 Partly cloudy - 25.8 1005.5 23.8
26/01:44am NE 3 4 - - - - 10 Partly cloudy - 25.8 1005.9 23.6
26/01:31am NNE 3 5 - - - - 5 Partly cloudy - 25.8 1006.2 23.4
26/01:30am NNE 3 5 - - - - 6 Partly cloudy - 25.9 1006.2 23.4
26/01:08am N 7 8 - - - - 7 Partly cloudy - 25.7 1006.3 22.4
26/01:00am NNE 6 8 - - - - 7 Partly cloudy - 25.9 1006.3 22.4
26/12:30am E 4 6 - - - - 5 Partly cloudy - 26.0 1006.5 22.0
26/12:29am E 4 6 - - - - 5 Partly cloudy - 26.0 1006.5 22.0
26/12:21am ESE 4 6 - - - - 7 Partly cloudy - 26.1 1006.5 22.0
26/12:00am SE 7 9 - - - - 5 Cloudy Drizzle 26.3 1006.7 21.8
 
Date/Time
CST
Wind Sea
Height
m
Swell Vis
km
Cloud Weather Temp
°C
Press
MSL
hPa
Rain since
9am
mm
Dir  Spd
kts
Gust
kts
Height
m
Period
s
Dir
25/11:59pm SE 7 9 - - - - 5 Partly cloudy - 26.4 1006.7 21.8
25/11:50pm SE 8 11 - - - - 7 Partly cloudy - 26.4 1006.8 21.4
25/11:39pm SE 7 10 - - - - 10 Partly cloudy - 26.5 1006.8 21.2
25/11:30pm SSE 6 7 - - - - 10 Partly cloudy - 26.6 1006.9 21.2
25/11:00pm SSE 2 5 - - - - 10 Partly cloudy - 26.7 1006.8 21.2
25/10:30pm ESE 3 5 - - - - 10 Partly cloudy - 26.7 1006.7 21.2
25/10:00pm ESE 1 4 - - - - 10 - - 26.8 1006.4 21.2
25/09:30pm CALM 0 0 - - - - 10 - - 26.9 1005.8 21.2
25/09:00pm CALM 0 0 - - - - 10 Cloudy - 27.0 1005.7 21.2
25/08:30pm CALM 0 0 - - - - 10 Partly cloudy - 27.2 1005.5 21.2
25/08:00pm CALM 0 0 - - - - 10 Cloudy - 27.4 1005.1 21.2
25/07:30pm ESE 1 4 - - - - 10 Partly cloudy - 27.7 1004.7 21.2
25/07:00pm CALM 0 0 - - - - 10 Partly cloudy - 27.8 1004.5 21.2
25/06:30pm NNE 3 4 - - - - 10 Partly cloudy - 27.9 1004.3 21.2
25/06:00pm NNE 4 6 - - - - 10 Cloudy Rain 27.9 1004.0 21.2
25/05:30pm NE 6 9 - - - - 10 Partly cloudy - 27.7 1004.0 21.2
25/05:07pm ENE 5 7 - - - - 10 Partly cloudy - 27.8 1004.1 21.0
25/05:00pm NE 5 6 - - - - 10 Partly cloudy - 27.9 1004.1 21.0
25/04:30pm NE 5 7 - - - - 10 Cloudy - 28.0 1003.7 21.0
25/04:18pm NE 5 8 - - - - 10 Partly cloudy - 28.0 1003.7 21.0
25/04:00pm NE 5 9 - - - - 10 Partly cloudy - 28.0 1003.5 21.0
25/03:30pm ENE 5 10 - - - - 10 Partly cloudy - 28.0 1003.2 21.0
25/03:00pm ENE 5 7 - - - - 10 Mostly cloudy Rain 27.7 1003.3 21.0
25/02:41pm ENE 6 7 - - - - 10 Partly cloudy - 27.3 1003.2 21.0
25/02:30pm ENE 7 9 - - - - 5 Partly cloudy - 27.3 1003.4 21.0
25/02:00pm SW 5 8 - - - - 2 Partly cloudy - 27.0 1003.8 4.4
25/01:42pm ESE 5 8 - - - - 5 Partly cloudy - 29.7 1004.1 1.0
25/01:30pm ENE 5 9 - - - - 10 Partly cloudy - 30.5 1004.3 0.2
25/01:00pm NNE 6 9 - - - - 10 Partly cloudy - 31.1 1004.7 0.2
25/12:30pm SE 3 8 - - - - 10 Partly cloudy - 31.2 1004.8 0.2
25/12:00pm ESE 2 5 - - - - 10 Partly cloudy - 31.0 1005.6 0.2
25/11:30am SSE 3 5 - - - - 10 Partly cloudy - 30.5 1006.0 0.2
25/11:00am SSE 4 6 - - - - 10 Partly cloudy - 29.5 1005.9 0.2
25/10:43am SE 4 6 - - - - 10 Partly cloudy - 29.7 1006.2 0.2
25/10:30am SE 3 8 - - - - 10 Partly cloudy - 29.0 1006.3 0.2
25/10:19am SE 3 5 - - - - 10 Partly cloudy - 28.9 1006.3 0.2
25/10:00am S 4 7 - - - - 10 Partly cloudy - 28.1 1006.4 0.0
25/09:30am S 7 10 - - - - 10 Partly cloudy - 27.7 1006.2 0.0
25/09:00am SSE 5 6 - - - - 10 Cloudy - 27.7 1006.4 6.2
25/08:51am SSE 4 6 - - - - 10 Partly cloudy - 27.4 1006.5 6.2
25/08:30am S 5 8 - - - - 10 Partly cloudy - 26.7 1006.5 6.2
25/08:00am E 3 5 - - - - 10 Cloudy - 26.1 1006.3 6.2
25/07:30am SSW 5 7 - - - - 10 Partly cloudy - 25.5 1005.6 6.2
25/07:00am SSW 3 5 - - - - 10 Partly cloudy - 25.4 1005.4 6.2
25/06:30am SSW 2 4 - - - - 10 Partly cloudy - 25.4 1005.1 6.2
25/06:17am SSW 3 4 - - - - 10 Partly cloudy - 25.4 1004.9 6.2
25/06:00am WSW 2 5 - - - - 10 Cloudy - 25.4 1005.0 6.2
25/05:30am CALM 0 0 - - - - 10 Cloudy - 25.4 1005.0 6.2
25/05:00am CALM 0 0 - - - - 10 Partly cloudy - 25.3 1004.7 6.2
25/04:54am CALM 0 2 - - - - 10 Partly cloudy - 25.3 1004.7 6.2
25/04:30am CALM 0 0 - - - - 10 Partly cloudy - 25.3 1004.6 6.2
25/04:00am SSW 1 4 - - - - 10 Cloudy - 25.1 1004.4 6.2
25/03:30am CALM 0 0 - - - - 10 Partly cloudy - 25.1 1004.7 6.2
25/03:00am CALM 0 0 - - - - 10 Mostly cloudy - 25.1 1004.8 6.2
25/02:30am SSW 2 4 - - - - 10 - - 25.2 1005.0 6.2
25/02:00am WNW 1 4 - - - - 10 Partly cloudy - 25.5 1005.5 6.2
25/01:30am NW 3 5 - - - - 10 Partly cloudy - 25.9 1006.1 6.2
25/01:00am WNW 4 6 - - - - 10 - - 25.4 1006.0 6.2
25/12:30am SW 5 7 - - - - 10 - - 24.8 1006.4 6.2
25/12:00am SSW 5 7 - - - - 10 Cloudy Drizzle 24.7 1006.5 6.2
 
Date/Time
CST
Wind Sea
Height
m
Swell Vis
km
Cloud Weather Temp
°C
Press
MSL
hPa
Rain since
9am
mm
Dir  Spd
kts
Gust
kts
Height
m
Period
s
Dir
24/11:30pm S 6 9 - - - - 10 Partly cloudy - 24.6 1006.9 6.2
24/11:00pm SSW 6 9 - - - - 10 Partly cloudy - 24.6 1007.0 6.0
24/10:30pm S 6 9 - - - - 10 Partly cloudy - 24.5 1007.3 6.0
24/10:00pm SSE 4 6 - - - - 10 Cloudy - 24.6 1006.8 6.0
24/09:30pm CALM 0 3 - - - - 10 Partly cloudy - 24.6 1006.6 6.0
24/09:00pm WNW 6 9 - - - - 10 Cloudy Rain 24.7 1006.7 6.0
24/08:30pm WNW 6 9 - - - - 10 Partly cloudy - 24.7 1006.7 5.8
24/08:07pm W 4 6 - - - - 10 Partly cloudy - 24.8 1006.7 5.2
24/08:00pm WNW 6 11 - - - - 6 Partly cloudy - 24.9 1006.8 5.0
24/07:51pm WSW 7 11 - - - - 5 Partly cloudy - 25.2 1006.8 4.6
24/07:42pm WSW 7 11 - - - - 10 Partly cloudy - 25.8 1006.4 3.8
24/07:30pm W 8 14 - - - - 10 Partly cloudy - 27.1 1006.0 3.8
24/07:00pm WNW 4 8 - - - - 10 Cloudy - 27.8 1005.5 3.8
24/06:30pm WNW 3 5 - - - - 10 Partly cloudy - 28.2 1005.5 3.6
24/06:00pm NW 7 11 - - - - 10 Cloudy Showers 28.7 1004.9 3.4
24/05:30pm NNW 5 8 - - - - 10 Partly cloudy - 29.1 1003.8 3.4
24/05:00pm NNW 5 7 - - - - 10 Cloudy - 29.1 1003.4 3.4
24/04:30pm NW 5 7 - - - - 10 Partly cloudy - 28.9 1003.3 3.4
24/04:00pm NNW 7 12 - - - - 10 Partly cloudy - 28.3 1003.8 3.4
24/03:30pm NW 6 11 - - - - 10 Partly cloudy - 27.8 1004.0 3.4
24/03:10pm NNW 6 9 - - - - 6 Partly cloudy - 26.8 1004.1 3.2
24/03:00pm NW 6 10 - - - - 5 Cloudy Showers 26.6 1004.3 2.4
24/02:37pm WNW 8 15 - - - - 5 Partly cloudy - 27.1 1004.5 0.8
24/02:30pm WNW 10 16 - - - - 9 Partly cloudy - 27.7 1004.4 0.4
24/02:00pm NNW 16 23 - - - - 10 Partly cloudy - 30.6 1004.5 0.0
24/01:56pm NNW 15 19 - - - - 10 Partly cloudy - 31.5 1004.5 0.0
24/01:30pm NW 7 9 - - - - 10 Partly cloudy - 32.0 1004.8 0.0
24/01:00pm NW 7 10 - - - - 10 - - 32.1 1005.3 0.0
24/12:30pm NW 6 9 - - - - 10 Partly cloudy - 31.9 1005.8 0.0
24/12:00pm W 5 9 - - - - 10 Cloudy - 31.6 1006.4 0.0
24/11:30am SSW 6 9 - - - - 10 Partly cloudy - 30.8 1006.9 0.0
24/11:00am W 6 13 - - - - 10 Partly cloudy - 31.1 1007.3 0.0
24/10:30am WNW 6 9 - - - - 10 Partly cloudy - 30.4 1007.9 0.0
24/10:00am W 6 10 - - - - 10 Cloudy - 29.9 1008.0 0.0
24/09:30am WNW 7 10 - - - - 10 Cloudy - 29.8 1007.7 0.0
24/09:00am WNW 5 8 - - - - 10 Partly cloudy - 28.7 1008.1 0.4
24/08:30am WNW 3 7 - - - - 10 - - 28.3 1007.9 0.4
24/08:00am WNW 4 7 - - - - 10 - - 27.5 1007.4 0.4
24/07:30am WNW 3 5 - - - - 10 - - 27.1 1007.3 0.4
24/07:00am WNW 1 5 - - - - 10 Partly cloudy - 26.4 1006.9 0.4
24/06:30am WSW 3 6 - - - - 10 - - 26.2 1007.0 0.4
24/06:00am WNW 4 8 - - - - 10 - - 26.5 1006.8 0.4
24/05:30am NW 4 7 - - - - 10 - - 26.4 1006.4 0.4
24/05:00am WNW 4 7 - - - - 10 - - 26.5 1006.4 0.4
24/04:30am W 3 5 - - - - 10 - - 26.2 1006.1 0.4
24/04:00am WSW 1 3 - - - - 10 - - 26.1 1006.1 0.4
24/03:30am W 4 6 - - - - 10 - - 26.4 1005.9 0.4
24/03:00am WSW 5 8 - - - - 10 - - 26.7 1006.2 0.4
24/02:30am WSW 4 6 - - - - 10 Partly cloudy - 26.4 1006.6 0.4
24/02:00am WSW 4 6 - - - - 10 - - 26.7 1007.3 0.4
24/01:30am W 4 8 - - - - 10 - - 26.7 1007.3 0.4
24/01:00am W 1 4 - - - - 10 - - 26.5 1007.8 0.4
24/12:30am CALM 0 2 - - - - 10 Partly cloudy - 26.6 1008.4 0.4
24/12:00am WSW 3 6 - - - - 10 - - 27.0 1008.6 0.4
 
Date/Time
CST
Wind Sea
Height
m
Swell Vis
km
Cloud Weather Temp
°C
Press
MSL
hPa
Rain since
9am
mm
Dir  Spd
kts
Gust
kts
Height
m
Period
s
Dir
23/11:30pm WNW 3 5 - - - - 10 - - 27.9 1008.6 0.4
23/11:00pm NW 5 7 - - - - 10 Partly cloudy - 28.0 1009.1 0.4
23/10:30pm NW 4 6 - - - - 10 Partly cloudy - 28.1 1009.3 0.4
23/10:00pm NNW 5 7 - - - - 10 Partly cloudy - 28.0 1008.7 0.4
23/09:30pm NW 4 6 - - - - 10 Partly cloudy - 28.1 1009.0 0.4

Other formats

Comma delimited format used in spreadsheet applications
http://www.bom.gov.au/fwo/IDD60701/IDD60701.95142.axf

JavaScript Object Notation format (JSON) in row-major order
http://www.bom.gov.au/fwo/IDD60701/IDD60701.95142.json

Data quality

Most of these data are generated automatically and are frequently updated. Quality checks on data are not normally performed. It is possible for incorrect values to appear. Refer to information at About Latest Weather Observations and please check the disclaimer before using these data.